AAL2033 KCLT-KLGA
Flight info
| Callsign | AAL2033 |
|---|---|
| Flight time | 1h 31m |
| Altitude | 37000 |
| Route | BARMY5 RDU NOWAE Q87 HURTS PROUD2 |
| Aircraft | A319/M-SDE3FGHIRWY/LB1 |
Departure
| Time | 2026-05-05 11:19 |
|---|---|
| Airport | Charlotte Douglas International Airport (KCLT) |
Arrival
| Time | 2026-05-05 12:50 |
|---|---|
| Airport | LaGuardia Airport (KLGA) |
| Time | Latitude | Longitude | Altitude | Speed | Heading |
|---|---|---|---|---|---|
| 2026-05-05 10:58 | 35.22006 | -80.94016 | 731 ft | 0 kts | 356° |
| 2026-05-05 11:12 | 35.21996 | -80.94015 | 732 ft | 4 kts | 356° |
| 2026-05-05 11:12 | 35.21974 | -80.94014 | 731 ft | 2 kts | 356° |
| 2026-05-05 11:12 | 35.21948 | -80.94013 | 731 ft | 4 kts | 8° |
| 2026-05-05 11:13 | 35.21927 | -80.94022 | 731 ft | 4 kts | 68° |
| 2026-05-05 11:13 | 35.21924 | -80.94049 | 730 ft | 2 kts | 85° |
| 2026-05-05 11:13 | 35.21924 | -80.94050 | 730 ft | 0 kts | 85° |
| 2026-05-05 11:15 | 35.21924 | -80.94040 | 730 ft | 2 kts | 90° |
| 2026-05-05 11:15 | 35.21918 | -80.94018 | 731 ft | 4 kts | 114° |
| 2026-05-05 11:15 | 35.21903 | -80.93986 | 731 ft | 5 kts | 118° |
| 2026-05-05 11:15 | 35.21885 | -80.93943 | 732 ft | 6 kts | 118° |
| 2026-05-05 11:16 | 35.21865 | -80.93889 | 732 ft | 8 kts | 98° |
| 2026-05-05 11:16 | 35.21889 | -80.93830 | 732 ft | 9 kts | 50° |
| 2026-05-05 11:16 | 35.21932 | -80.93771 | 732 ft | 10 kts | 49° |
| 2026-05-05 11:16 | 35.21986 | -80.93715 | 733 ft | 11 kts | 18° |
| 2026-05-05 11:17 | 35.22065 | -80.93719 | 731 ft | 12 kts | 355° |
| 2026-05-05 11:17 | 35.22152 | -80.93727 | 733 ft | 13 kts | 356° |
| 2026-05-05 11:17 | 35.22247 | -80.93734 | 733 ft | 14 kts | 356° |
| 2026-05-05 11:17 | 35.22349 | -80.93743 | 733 ft | 14 kts | 356° |
| 2026-05-05 11:18 | 35.22403 | -80.93670 | 735 ft | 13 kts | 86° |
| 2026-05-05 11:18 | 35.22357 | -80.93606 | 736 ft | 12 kts | 176° |
| 2026-05-05 11:18 | 35.22211 | -80.93594 | 736 ft | 49 kts | 176° |
| 2026-05-05 11:18 | 35.21609 | -80.93544 | 736 ft | 121 kts | 176° |
| 2026-05-05 11:19 | 35.20611 | -80.93458 | 980 ft | 151 kts | 176° |
| 2026-05-05 11:19 | 35.19583 | -80.93345 | 1755 ft | 146 kts | 178° |
| 2026-05-05 11:19 | 35.18581 | -80.93214 | 2506 ft | 146 kts | 182° |
| 2026-05-05 11:19 | 35.17485 | -80.92998 | 2894 ft | 176 kts | 166° |
| 2026-05-05 11:20 | 35.16423 | -80.91981 | 3222 ft | 219 kts | 129° |
| 2026-05-05 11:20 | 35.15964 | -80.90071 | 3625 ft | 256 kts | 91° |
| 2026-05-05 11:20 | 35.16315 | -80.87806 | 4161 ft | 281 kts | 73° |
| 2026-05-05 11:20 | 35.16947 | -80.85523 | 5119 ft | 288 kts | 71° |
| 2026-05-05 11:21 | 35.17621 | -80.83198 | 6106 ft | 292 kts | 73° |
| 2026-05-05 11:21 | 35.18262 | -80.80828 | 7099 ft | 295 kts | 76° |
| 2026-05-05 11:21 | 35.18844 | -80.78445 | 8032 ft | 298 kts | 78° |
| 2026-05-05 11:21 | 35.19390 | -80.75978 | 8986 ft | 302 kts | 79° |
| 2026-05-05 11:22 | 35.19670 | -80.74638 | 9475 ft | 302 kts | 80° |
| 2026-05-05 11:22 | 35.22007 | -80.94016 | 732 ft | 6 kts | 356° |
| 2026-05-05 11:28 | 35.21994 | -80.94015 | 731 ft | 2 kts | 356° |
| 2026-05-05 11:28 | 35.21979 | -80.94014 | 732 ft | 0 kts | 356° |
| 2026-05-05 11:28 | 35.21984 | -80.94011 | 731 ft | 1 kts | 22° |
| 2026-05-05 11:28 | 35.21987 | -80.94001 | 731 ft | 2 kts | 75° |
| 2026-05-05 11:29 | 35.21987 | -80.93980 | 731 ft | 3 kts | 87° |
| 2026-05-05 11:29 | 35.21988 | -80.93944 | 732 ft | 5 kts | 87° |
| 2026-05-05 11:29 | 35.21991 | -80.93892 | 732 ft | 7 kts | 87° |
| 2026-05-05 11:29 | 35.22001 | -80.93827 | 732 ft | 9 kts | 60° |
| 2026-05-05 11:30 | 35.22059 | -80.93803 | 732 ft | 10 kts | 356° |
| 2026-05-05 11:30 | 35.22134 | -80.93810 | 732 ft | 12 kts | 355° |
| 2026-05-05 11:30 | 35.22220 | -80.93817 | 733 ft | 13 kts | 355° |
| 2026-05-05 11:30 | 35.22318 | -80.93826 | 733 ft | 15 kts | 355° |
| 2026-05-05 11:31 | 35.22398 | -80.93767 | 732 ft | 16 kts | 75° |
| 2026-05-05 11:31 | 35.22400 | -80.93638 | 736 ft | 15 kts | 109° |
| 2026-05-05 11:31 | 35.22304 | -80.93605 | 736 ft | 18 kts | 175° |
| 2026-05-05 11:31 | 35.21960 | -80.93574 | 737 ft | 88 kts | 176° |
| 2026-05-05 11:32 | 35.21124 | -80.93503 | 742 ft | 149 kts | 176° |
| 2026-05-05 11:32 | 35.20090 | -80.93400 | 1371 ft | 149 kts | 176° |
| 2026-05-05 11:32 | 35.19140 | -80.92900 | 2070 ft | 160 kts | 143° |
| 2026-05-05 11:32 | 35.18615 | -80.91634 | 2630 ft | 183 kts | 102° |
| 2026-05-05 11:33 | 35.18756 | -80.89974 | 3015 ft | 209 kts | 81° |
| 2026-05-05 11:33 | 35.19049 | -80.88127 | 3421 ft | 234 kts | 81° |
| 2026-05-05 11:33 | 35.19371 | -80.86078 | 3923 ft | 258 kts | 81° |
| 2026-05-05 11:33 | 35.19721 | -80.83822 | 4468 ft | 280 kts | 81° |
| 2026-05-05 11:34 | 35.20086 | -80.81438 | 5369 ft | 288 kts | 81° |
| 2026-05-05 11:34 | 35.20449 | -80.79047 | 6383 ft | 291 kts | 83° |
| 2026-05-05 11:34 | 35.20823 | -80.76575 | 7382 ft | 293 kts | 83° |
| 2026-05-05 11:34 | 35.21194 | -80.74106 | 8343 ft | 297 kts | 83° |
| 2026-05-05 11:35 | 35.21565 | -80.71600 | 9315 ft | 301 kts | 84° |
| 2026-05-05 11:35 | 35.21929 | -80.69094 | 10204 ft | 307 kts | 84° |
| 2026-05-05 11:35 | 35.22312 | -80.66424 | 10593 ft | 331 kts | 83° |
| 2026-05-05 11:35 | 35.22726 | -80.63550 | 10901 ft | 355 kts | 83° |
| 2026-05-05 11:36 | 35.23167 | -80.60504 | 11374 ft | 369 kts | 82° |
| 2026-05-05 11:36 | 35.23625 | -80.57380 | 12120 ft | 375 kts | 82° |
| 2026-05-05 11:36 | 35.24090 | -80.54217 | 12901 ft | 380 kts | 82° |
| 2026-05-05 11:36 | 35.24559 | -80.51017 | 13682 ft | 385 kts | 81° |
| 2026-05-05 11:37 | 35.25033 | -80.47779 | 14398 ft | 389 kts | 81° |
| 2026-05-05 11:37 | 35.25506 | -80.44490 | 15087 ft | 394 kts | 81° |
| 2026-05-05 11:37 | 35.25955 | -80.41171 | 15774 ft | 398 kts | 82° |
| 2026-05-05 11:37 | 35.26394 | -80.37807 | 16454 ft | 402 kts | 82° |
| 2026-05-05 11:38 | 35.26834 | -80.34409 | 17128 ft | 407 kts | 82° |
| 2026-05-05 11:38 | 35.27281 | -80.30968 | 17798 ft | 411 kts | 82° |
| 2026-05-05 11:38 | 35.27733 | -80.27493 | 18458 ft | 416 kts | 81° |
| 2026-05-05 11:38 | 35.28189 | -80.23978 | 19029 ft | 420 kts | 81° |
| 2026-05-05 11:39 | 35.28644 | -80.20471 | 19595 ft | 424 kts | 81° |
| 2026-05-05 11:39 | 35.29106 | -80.16888 | 20164 ft | 429 kts | 81° |
| 2026-05-05 11:39 | 35.29573 | -80.13265 | 20722 ft | 433 kts | 81° |
| 2026-05-05 11:39 | 35.30138 | -80.09632 | 21252 ft | 436 kts | 74° |
| 2026-05-05 11:40 | 35.31103 | -80.06096 | 21771 ft | 440 kts | 69° |
| 2026-05-05 11:40 | 35.32156 | -80.02559 | 22289 ft | 444 kts | 69° |
| 2026-05-05 11:40 | 35.33210 | -79.98994 | 22792 ft | 448 kts | 69° |
| 2026-05-05 11:40 | 35.34267 | -79.95389 | 23296 ft | 452 kts | 69° |
| 2026-05-05 11:41 | 35.35326 | -79.91749 | 23738 ft | 456 kts | 69° |
| 2026-05-05 11:41 | 35.36393 | -79.88070 | 24127 ft | 460 kts | 69° |
| 2026-05-05 11:41 | 35.37463 | -79.84366 | 24536 ft | 463 kts | 69° |
| 2026-05-05 11:41 | 35.38538 | -79.80645 | 24934 ft | 465 kts | 68° |
| 2026-05-05 11:42 | 35.39625 | -79.76896 | 25357 ft | 468 kts | 68° |
| 2026-05-05 11:42 | 35.40717 | -79.73131 | 25763 ft | 470 kts | 68° |
| 2026-05-05 11:42 | 35.41815 | -79.69341 | 26177 ft | 473 kts | 68° |
| 2026-05-05 11:42 | 35.42919 | -79.65537 | 26578 ft | 475 kts | 68° |
| 2026-05-05 11:43 | 35.44027 | -79.61714 | 26974 ft | 477 kts | 68° |
| 2026-05-05 11:43 | 35.45142 | -79.57865 | 27366 ft | 480 kts | 68° |
| 2026-05-05 11:43 | 35.46262 | -79.54001 | 27755 ft | 482 kts | 68° |
| 2026-05-05 11:43 | 35.47386 | -79.50116 | 28126 ft | 484 kts | 68° |
| 2026-05-05 11:44 | 35.48510 | -79.46213 | 28493 ft | 486 kts | 68° |
| 2026-05-05 11:44 | 35.49639 | -79.42289 | 28837 ft | 488 kts | 68° |
| 2026-05-05 11:44 | 35.50768 | -79.38348 | 29202 ft | 490 kts | 68° |
| 2026-05-05 11:44 | 35.51894 | -79.34394 | 29567 ft | 492 kts | 68° |
| 2026-05-05 11:45 | 35.53019 | -79.30432 | 30068 ft | 490 kts | 68° |
| 2026-05-05 11:45 | 35.54144 | -79.26486 | 30520 ft | 489 kts | 68° |
| 2026-05-05 11:45 | 35.55264 | -79.22548 | 30945 ft | 487 kts | 68° |
| 2026-05-05 11:45 | 35.56378 | -79.18626 | 31369 ft | 486 kts | 68° |
| 2026-05-05 11:46 | 35.57505 | -79.14721 | 31795 ft | 484 kts | 66° |
| 2026-05-05 11:46 | 35.58955 | -79.11007 | 32212 ft | 480 kts | 57° |
| 2026-05-05 11:46 | 35.60145 | -79.08733 | 32492 ft | 476 kts | 51° |
| 2026-05-05 11:46 | 35.62244 | -79.05619 | 32917 ft | 471 kts | 42° |
| 2026-05-05 11:47 | 35.64641 | -79.02891 | 33340 ft | 468 kts | 37° |
| 2026-05-05 11:47 | 35.67882 | -78.99397 | 33906 ft | 466 kts | 38° |
| 2026-05-05 11:47 | 35.69528 | -78.97617 | 34184 ft | 466 kts | 38° |
| 2026-05-05 11:47 | 35.71954 | -78.94987 | 34554 ft | 465 kts | 38° |
| 2026-05-05 11:48 | 35.76800 | -78.89709 | 35267 ft | 464 kts | 37° |
| 2026-05-05 11:48 | 35.79216 | -78.87076 | 35583 ft | 464 kts | 37° |
| 2026-05-05 11:48 | 35.81610 | -78.84474 | 35913 ft | 464 kts | 37° |
| 2026-05-05 11:49 | 35.84031 | -78.81841 | 36240 ft | 463 kts | 37° |
| 2026-05-05 11:49 | 35.86445 | -78.79212 | 36596 ft | 463 kts | 37° |
| 2026-05-05 11:49 | 35.88863 | -78.76592 | 36924 ft | 462 kts | 36° |
| 2026-05-05 11:49 | 35.91303 | -78.74002 | 37065 ft | 463 kts | 36° |
| 2026-05-05 11:50 | 35.96244 | -78.68866 | 37095 ft | 465 kts | 35° |
| 2026-05-05 11:50 | 36.01204 | -78.63712 | 37101 ft | 466 kts | 36° |
| 2026-05-05 11:51 | 36.06115 | -78.58545 | 37109 ft | 466 kts | 36° |
| 2026-05-05 11:51 | 36.11042 | -78.53326 | 37109 ft | 466 kts | 37° |
| 2026-05-05 11:52 | 36.15974 | -78.48104 | 37111 ft | 467 kts | 36° |
| 2026-05-05 11:52 | 36.20912 | -78.42888 | 37114 ft | 467 kts | 37° |
| 2026-05-05 11:53 | 36.25852 | -78.37667 | 37105 ft | 467 kts | 37° |
| 2026-05-05 11:53 | 36.30784 | -78.32431 | 37100 ft | 467 kts | 37° |
| 2026-05-05 11:54 | 36.35710 | -78.27180 | 37088 ft | 467 kts | 37° |
| 2026-05-05 11:54 | 36.40597 | -78.21844 | 37082 ft | 468 kts | 39° |
| 2026-05-05 11:55 | 36.45321 | -78.16270 | 37083 ft | 469 kts | 40° |
| 2026-05-05 11:55 | 36.50011 | -78.10619 | 37074 ft | 469 kts | 40° |
| 2026-05-05 11:56 | 36.54724 | -78.05016 | 37069 ft | 469 kts | 40° |
| 2026-05-05 11:56 | 36.59467 | -77.99441 | 37135 ft | 469 kts | 39° |
| 2026-05-05 11:57 | 36.64213 | -77.93860 | 37154 ft | 469 kts | 40° |
| 2026-05-05 11:57 | 36.68923 | -77.88294 | 37123 ft | 470 kts | 40° |
| 2026-05-05 11:58 | 36.73662 | -77.82660 | 37103 ft | 471 kts | 40° |
| 2026-05-05 11:58 | 36.78402 | -77.77009 | 37082 ft | 471 kts | 40° |
| 2026-05-05 11:59 | 36.83153 | -77.71359 | 37083 ft | 472 kts | 40° |
| 2026-05-05 11:59 | 36.87913 | -77.65718 | 37089 ft | 472 kts | 40° |
| 2026-05-05 12:00 | 36.92660 | -77.60062 | 37076 ft | 472 kts | 40° |
| 2026-05-05 12:00 | 36.97397 | -77.54384 | 37058 ft | 471 kts | 41° |
| 2026-05-05 12:01 | 37.02132 | -77.48711 | 37068 ft | 471 kts | 41° |
| 2026-05-05 12:01 | 37.06873 | -77.43025 | 37085 ft | 471 kts | 41° |
| 2026-05-05 12:02 | 37.11569 | -77.37383 | 37084 ft | 471 kts | 41° |
| 2026-05-05 12:02 | 37.16287 | -77.31701 | 37083 ft | 470 kts | 41° |
| 2026-05-05 12:03 | 37.20999 | -77.26015 | 37078 ft | 470 kts | 41° |
| 2026-05-05 12:03 | 37.25741 | -77.20289 | 37064 ft | 470 kts | 41° |
| 2026-05-05 12:04 | 37.30424 | -77.14626 | 37061 ft | 470 kts | 41° |
| 2026-05-05 12:04 | 37.35124 | -77.08921 | 37059 ft | 470 kts | 41° |
| 2026-05-05 12:05 | 37.39823 | -77.03219 | 37053 ft | 469 kts | 41° |
| 2026-05-05 12:05 | 37.44521 | -76.97520 | 37048 ft | 468 kts | 39° |
| 2026-05-05 12:06 | 37.49890 | -76.93019 | 37062 ft | 462 kts | 24° |
| 2026-05-05 12:06 | 37.55577 | -76.89271 | 37051 ft | 462 kts | 24° |
| 2026-05-05 12:07 | 37.61253 | -76.85482 | 37072 ft | 462 kts | 25° |
| 2026-05-05 12:07 | 37.66931 | -76.81684 | 37053 ft | 462 kts | 25° |
| 2026-05-05 12:08 | 37.72609 | -76.77894 | 37041 ft | 462 kts | 25° |
| 2026-05-05 12:08 | 37.78292 | -76.74097 | 37034 ft | 462 kts | 25° |
| 2026-05-05 12:09 | 37.83978 | -76.70301 | 37025 ft | 462 kts | 25° |
| 2026-05-05 12:09 | 37.89664 | -76.66505 | 37024 ft | 462 kts | 24° |
| 2026-05-05 12:10 | 37.95401 | -76.62852 | 37012 ft | 461 kts | 23° |
| 2026-05-05 12:10 | 38.01129 | -76.59286 | 37021 ft | 461 kts | 23° |
| 2026-05-05 12:11 | 38.06880 | -76.55667 | 37011 ft | 461 kts | 23° |
| 2026-05-05 12:11 | 38.12621 | -76.52006 | 37034 ft | 461 kts | 24° |
| 2026-05-05 12:12 | 38.18356 | -76.48340 | 37021 ft | 462 kts | 24° |
| 2026-05-05 12:12 | 38.24100 | -76.44671 | 36994 ft | 462 kts | 24° |
| 2026-05-05 12:13 | 38.29773 | -76.40806 | 36988 ft | 465 kts | 32° |
| 2026-05-05 12:13 | 38.34942 | -76.35797 | 36999 ft | 467 kts | 35° |
| 2026-05-05 12:14 | 38.40091 | -76.30769 | 36998 ft | 466 kts | 35° |
| 2026-05-05 12:14 | 38.45245 | -76.25736 | 36999 ft | 466 kts | 35° |
| 2026-05-05 12:15 | 38.50398 | -76.20701 | 37001 ft | 466 kts | 35° |
| 2026-05-05 12:15 | 38.55542 | -76.15651 | 37016 ft | 466 kts | 35° |
| 2026-05-05 12:16 | 38.60643 | -76.10626 | 37006 ft | 466 kts | 35° |
| 2026-05-05 12:16 | 38.65807 | -76.05591 | 36714 ft | 467 kts | 34° |
| 2026-05-05 12:17 | 38.68421 | -76.03141 | 36436 ft | 466 kts | 33° |
| 2026-05-05 12:17 | 38.71063 | -76.00709 | 36171 ft | 466 kts | 33° |
| 2026-05-05 12:17 | 38.73698 | -75.98294 | 35629 ft | 468 kts | 33° |
| 2026-05-05 12:17 | 38.76361 | -75.95843 | 34671 ft | 473 kts | 33° |
| 2026-05-05 12:18 | 38.79021 | -75.93372 | 33798 ft | 471 kts | 33° |
| 2026-05-05 12:18 | 38.81674 | -75.90890 | 32668 ft | 473 kts | 34° |
| 2026-05-05 12:18 | 38.84327 | -75.88393 | 31605 ft | 474 kts | 34° |
| 2026-05-05 12:18 | 38.86993 | -75.85875 | 30521 ft | 478 kts | 34° |
| 2026-05-05 12:19 | 38.89692 | -75.83326 | 29155 ft | 486 kts | 34° |
| 2026-05-05 12:19 | 38.92428 | -75.80746 | 27924 ft | 488 kts | 34° |
| 2026-05-05 12:19 | 38.95173 | -75.78159 | 26619 ft | 491 kts | 33° |
| 2026-05-05 12:19 | 38.97916 | -75.75575 | 26042 ft | 486 kts | 33° |
| 2026-05-05 12:20 | 39.00646 | -75.73001 | 25791 ft | 486 kts | 33° |
| 2026-05-05 12:20 | 39.03336 | -75.70461 | 25573 ft | 485 kts | 33° |
| 2026-05-05 12:20 | 39.06050 | -75.67885 | 25568 ft | 485 kts | 33° |
| 2026-05-05 12:20 | 39.08795 | -75.65273 | 25522 ft | 485 kts | 33° |
| 2026-05-05 12:21 | 39.11475 | -75.62722 | 25376 ft | 484 kts | 33° |
| 2026-05-05 12:21 | 39.14184 | -75.60141 | 25202 ft | 483 kts | 33° |
| 2026-05-05 12:21 | 39.16882 | -75.57569 | 24940 ft | 482 kts | 33° |
| 2026-05-05 12:21 | 39.19576 | -75.55006 | 24703 ft | 480 kts | 33° |
| 2026-05-05 12:22 | 39.22259 | -75.52457 | 24464 ft | 479 kts | 33° |
| 2026-05-05 12:22 | 39.24951 | -75.49930 | 24220 ft | 477 kts | 32° |
| 2026-05-05 12:22 | 39.27659 | -75.47478 | 23985 ft | 475 kts | 31° |
| 2026-05-05 12:22 | 39.30383 | -75.45077 | 23749 ft | 473 kts | 31° |
| 2026-05-05 12:23 | 39.33111 | -75.42707 | 23504 ft | 472 kts | 31° |
| 2026-05-05 12:23 | 39.35828 | -75.40350 | 23248 ft | 469 kts | 30° |
| 2026-05-05 12:23 | 39.38528 | -75.37987 | 23017 ft | 468 kts | 31° |
| 2026-05-05 12:23 | 39.41217 | -75.35611 | 22786 ft | 467 kts | 31° |
| 2026-05-05 12:24 | 39.43883 | -75.33233 | 22549 ft | 465 kts | 31° |
| 2026-05-05 12:24 | 39.46541 | -75.30853 | 22323 ft | 464 kts | 31° |
| 2026-05-05 12:24 | 39.49195 | -75.28472 | 22083 ft | 463 kts | 31° |
| 2026-05-05 12:24 | 39.51835 | -75.26100 | 21784 ft | 462 kts | 31° |
| 2026-05-05 12:25 | 39.54452 | -75.23702 | 21206 ft | 458 kts | 32° |
| 2026-05-05 12:25 | 39.57030 | -75.21288 | 20713 ft | 456 kts | 32° |
| 2026-05-05 12:25 | 39.59549 | -75.18903 | 20231 ft | 454 kts | 32° |
| 2026-05-05 12:25 | 39.62086 | -75.16487 | 19735 ft | 451 kts | 32° |
| 2026-05-05 12:26 | 39.64610 | -75.14087 | 19245 ft | 449 kts | 32° |
| 2026-05-05 12:26 | 39.67125 | -75.11708 | 18767 ft | 446 kts | 32° |
| 2026-05-05 12:26 | 39.69646 | -75.09380 | 18349 ft | 444 kts | 31° |
| 2026-05-05 12:26 | 39.72196 | -75.07145 | 17824 ft | 440 kts | 29° |
| 2026-05-05 12:27 | 39.74749 | -75.04982 | 17406 ft | 433 kts | 28° |
| 2026-05-05 12:27 | 39.77235 | -75.02894 | 17265 ft | 418 kts | 28° |
| 2026-05-05 12:27 | 39.79630 | -75.00873 | 17121 ft | 400 kts | 28° |
| 2026-05-05 12:27 | 39.81891 | -74.98943 | 16990 ft | 379 kts | 28° |
| 2026-05-05 12:28 | 39.84031 | -74.97101 | 16827 ft | 359 kts | 28° |
| 2026-05-05 12:28 | 39.86080 | -74.95324 | 16399 ft | 350 kts | 29° |
| 2026-05-05 12:28 | 39.88079 | -74.93545 | 15846 ft | 347 kts | 30° |
| 2026-05-05 12:28 | 39.90050 | -74.91756 | 15275 ft | 344 kts | 30° |
| 2026-05-05 12:29 | 39.91977 | -74.89907 | 14717 ft | 345 kts | 36° |
| 2026-05-05 12:29 | 39.93674 | -74.87698 | 14158 ft | 346 kts | 45° |
| 2026-05-05 12:29 | 39.95280 | -74.85363 | 13581 ft | 345 kts | 45° |
| 2026-05-05 12:29 | 39.96889 | -74.83048 | 13110 ft | 344 kts | 45° |
| 2026-05-05 12:30 | 39.98496 | -74.80752 | 12782 ft | 341 kts | 45° |
| 2026-05-05 12:30 | 40.00093 | -74.78473 | 12408 ft | 340 kts | 45° |
| 2026-05-05 12:30 | 40.01688 | -74.76198 | 12056 ft | 339 kts | 45° |
| 2026-05-05 12:30 | 40.03272 | -74.73940 | 11707 ft | 337 kts | 46° |
| 2026-05-05 12:31 | 40.04851 | -74.71689 | 11367 ft | 335 kts | 46° |
| 2026-05-05 12:31 | 40.06402 | -74.69465 | 11111 ft | 325 kts | 46° |
| 2026-05-05 12:31 | 40.07895 | -74.67314 | 10744 ft | 316 kts | 46° |
| 2026-05-05 12:31 | 40.09363 | -74.65198 | 10280 ft | 313 kts | 47° |
| 2026-05-05 12:32 | 40.10820 | -74.63099 | 9926 ft | 311 kts | 47° |
| 2026-05-05 12:32 | 40.12275 | -74.61002 | 9746 ft | 312 kts | 47° |
| 2026-05-05 12:32 | 40.13728 | -74.58904 | 9598 ft | 311 kts | 47° |
| 2026-05-05 12:32 | 40.15176 | -74.56814 | 9456 ft | 310 kts | 47° |
| 2026-05-05 12:33 | 40.16622 | -74.54733 | 9319 ft | 309 kts | 47° |
| 2026-05-05 12:33 | 40.18047 | -74.52682 | 9169 ft | 308 kts | 47° |
| 2026-05-05 12:33 | 40.19485 | -74.50609 | 9025 ft | 307 kts | 47° |
| 2026-05-05 12:33 | 40.20936 | -74.48562 | 8895 ft | 306 kts | 45° |
| 2026-05-05 12:34 | 40.22440 | -74.46599 | 8755 ft | 305 kts | 43° |
| 2026-05-05 12:34 | 40.23972 | -74.44681 | 8623 ft | 304 kts | 43° |
| 2026-05-05 12:34 | 40.25508 | -74.42781 | 8476 ft | 303 kts | 42° |
| 2026-05-05 12:34 | 40.26522 | -74.41526 | 8396 ft | 302 kts | 42° |
| 2026-05-05 12:35 | 40.28045 | -74.39634 | 8263 ft | 302 kts | 43° |
| 2026-05-05 12:35 | 40.29563 | -74.37737 | 8123 ft | 301 kts | 43° |
| 2026-05-05 12:35 | 40.31075 | -74.35838 | 7982 ft | 301 kts | 43° |
| 2026-05-05 12:35 | 40.32578 | -74.33937 | 7848 ft | 300 kts | 43° |
| 2026-05-05 12:36 | 40.34070 | -74.32041 | 7712 ft | 299 kts | 43° |
| 2026-05-05 12:36 | 40.35562 | -74.30146 | 7579 ft | 298 kts | 43° |
| 2026-05-05 12:36 | 40.37045 | -74.28261 | 7434 ft | 297 kts | 43° |
| 2026-05-05 12:36 | 40.38528 | -74.26375 | 7304 ft | 296 kts | 43° |
| 2026-05-05 12:37 | 40.40005 | -74.24498 | 7154 ft | 295 kts | 43° |
| 2026-05-05 12:37 | 40.41477 | -74.22632 | 7022 ft | 294 kts | 43° |
| 2026-05-05 12:37 | 40.42945 | -74.20768 | 6889 ft | 293 kts | 43° |
| 2026-05-05 12:37 | 40.44404 | -74.18909 | 6753 ft | 292 kts | 43° |
| 2026-05-05 12:38 | 40.45859 | -74.17056 | 6623 ft | 291 kts | 43° |
| 2026-05-05 12:38 | 40.47308 | -74.15206 | 6498 ft | 291 kts | 43° |
| 2026-05-05 12:38 | 40.48753 | -74.13358 | 6359 ft | 287 kts | 43° |
| 2026-05-05 12:38 | 40.50162 | -74.11561 | 6222 ft | 280 kts | 43° |
| 2026-05-05 12:39 | 40.51544 | -74.09816 | 6097 ft | 278 kts | 40° |
| 2026-05-05 12:39 | 40.53098 | -74.08343 | 5969 ft | 272 kts | 30° |
| 2026-05-05 12:39 | 40.54665 | -74.07023 | 5853 ft | 265 kts | 30° |
| 2026-05-05 12:39 | 40.56211 | -74.05716 | 5734 ft | 264 kts | 30° |
| 2026-05-05 12:40 | 40.57755 | -74.04410 | 5615 ft | 263 kts | 30° |
| 2026-05-05 12:40 | 40.59286 | -74.03112 | 5497 ft | 263 kts | 30° |
| 2026-05-05 12:40 | 40.60822 | -74.01808 | 5379 ft | 262 kts | 30° |
| 2026-05-05 12:40 | 40.62341 | -74.00518 | 5258 ft | 256 kts | 29° |
| 2026-05-05 12:41 | 40.63825 | -73.99260 | 5133 ft | 252 kts | 28° |
| 2026-05-05 12:41 | 40.65396 | -73.98283 | 4908 ft | 248 kts | 18° |
| 2026-05-05 12:41 | 40.66986 | -73.97418 | 4842 ft | 247 kts | 18° |
| 2026-05-05 12:41 | 40.68567 | -73.96562 | 4785 ft | 241 kts | 17° |
| 2026-05-05 12:42 | 40.70083 | -73.95735 | 4734 ft | 230 kts | 17° |
| 2026-05-05 12:42 | 40.71533 | -73.94945 | 4692 ft | 226 kts | 17° |
| 2026-05-05 12:42 | 40.72991 | -73.94157 | 4641 ft | 227 kts | 17° |
| 2026-05-05 12:42 | 40.74454 | -73.93368 | 4560 ft | 228 kts | 17° |
| 2026-05-05 12:43 | 40.75910 | -73.92582 | 4511 ft | 227 kts | 17° |
| 2026-05-05 12:43 | 40.77369 | -73.91790 | 4457 ft | 227 kts | 17° |
| 2026-05-05 12:43 | 40.78826 | -73.91001 | 4403 ft | 226 kts | 17° |
| 2026-05-05 12:43 | 40.80283 | -73.90208 | 4350 ft | 226 kts | 17° |
| 2026-05-05 12:44 | 40.81738 | -73.89416 | 4300 ft | 226 kts | 17° |
| 2026-05-05 12:44 | 40.83195 | -73.88622 | 4249 ft | 226 kts | 17° |
| 2026-05-05 12:44 | 40.84646 | -73.87832 | 4199 ft | 225 kts | 17° |
| 2026-05-05 12:44 | 40.86093 | -73.87046 | 4166 ft | 225 kts | 16° |
| 2026-05-05 12:45 | 40.87519 | -73.86269 | 4118 ft | 224 kts | 16° |
| 2026-05-05 12:45 | 40.88956 | -73.85485 | 4067 ft | 224 kts | 17° |
| 2026-05-05 12:45 | 40.90266 | -73.84327 | 4005 ft | 232 kts | 43° |
| 2026-05-05 12:45 | 40.91067 | -73.82472 | 3953 ft | 236 kts | 73° |
| 2026-05-05 12:46 | 40.91151 | -73.80335 | 3839 ft | 233 kts | 103° |
| 2026-05-05 12:46 | 40.90527 | -73.78419 | 3498 ft | 225 kts | 132° |
| 2026-05-05 12:46 | 40.89471 | -73.76923 | 3093 ft | 221 kts | 145° |
| 2026-05-05 12:46 | 40.88137 | -73.76178 | 2686 ft | 202 kts | 184° |
| 2026-05-05 12:47 | 40.86854 | -73.76597 | 2398 ft | 184 kts | 216° |
| 2026-05-05 12:47 | 40.85919 | -73.77645 | 2129 ft | 170 kts | 227° |
| 2026-05-05 12:47 | 40.85070 | -73.78667 | 1875 ft | 159 kts | 227° |
| 2026-05-05 12:47 | 40.84278 | -73.79616 | 1642 ft | 149 kts | 226° |
| 2026-05-05 12:48 | 40.83559 | -73.80510 | 1432 ft | 132 kts | 229° |
| 2026-05-05 12:48 | 40.82954 | -73.81376 | 1269 ft | 125 kts | 233° |
| 2026-05-05 12:48 | 40.82410 | -73.82263 | 1072 ft | 124 kts | 236° |
| 2026-05-05 12:48 | 40.81941 | -73.83206 | 909 ft | 124 kts | 239° |
| 2026-05-05 12:49 | 40.81449 | -73.84138 | 723 ft | 123 kts | 234° |
| 2026-05-05 12:49 | 40.80867 | -73.84956 | 573 ft | 122 kts | 221° |
| 2026-05-05 12:49 | 40.80199 | -73.85646 | 433 ft | 122 kts | 218° |
| 2026-05-05 12:49 | 40.79497 | -73.86271 | 275 ft | 122 kts | 212° |
| 2026-05-05 12:50 | 40.78783 | -73.86864 | 110 ft | 120 kts | 212° |
| 2026-05-05 12:50 | 40.78093 | -73.87431 | 15 ft | 106 kts | 213° |
| 2026-05-05 12:50 | 40.77592 | -73.87849 | 25 ft | 61 kts | 212° |
| 2026-05-05 12:50 | 40.77328 | -73.88070 | 22 ft | 39 kts | 212° |
| 2026-05-05 12:51 | 40.77136 | -73.88229 | 26 ft | 19 kts | 209° |
| 2026-05-05 12:51 | 40.77049 | -73.88179 | 26 ft | 10 kts | 100° |
| 2026-05-05 12:51 | 40.77106 | -73.88109 | 22 ft | 14 kts | 31° |
| 2026-05-05 12:51 | 40.77197 | -73.88035 | 21 ft | 17 kts | 32° |
| 2026-05-05 12:52 | 40.77292 | -73.87955 | 21 ft | 16 kts | 33° |
| 2026-05-05 12:52 | 40.77393 | -73.87870 | 21 ft | 18 kts | 32° |
| 2026-05-05 12:52 | 40.77504 | -73.87777 | 21 ft | 20 kts | 32° |
| 2026-05-05 12:52 | 40.77627 | -73.87677 | 22 ft | 21 kts | 32° |
| 2026-05-05 12:53 | 40.77732 | -73.87575 | 20 ft | 12 kts | 70° |
| 2026-05-05 12:53 | 40.77724 | -73.87469 | 18 ft | 13 kts | 108° |
| 2026-05-05 12:53 | 40.77653 | -73.87463 | 20 ft | 11 kts | 209° |
| 2026-05-05 12:53 | 40.77598 | -73.87501 | 20 ft | 7 kts | 176° |
| 2026-05-05 12:54 | 40.77583 | -73.87456 | 21 ft | 4 kts | 106° |
| 2026-05-05 12:54 | 40.77579 | -73.87438 | 20 ft | 2 kts | 108° |
| 2026-05-05 12:54 | 40.77577 | -73.87431 | 20 ft | 0 kts | 108° |